sensor_id;sensor_type;location;lat;lon;timestamp;P1;durP1;ratioP1;P2;durP2;ratioP2
46415;SDS011;32620;51.704;7.822;2023-06-14T00:00:11;10.23;;;4.25;;
46415;SDS011;32620;51.704;7.822;2023-06-14T00:02:38;5.63;;;3.70;;
46415;SDS011;32620;51.704;7.822;2023-06-14T00:05:04;8.40;;;4.28;;
46415;SDS011;32620;51.704;7.822;2023-06-14T00:07:38;7.18;;;4.45;;
46415;SDS011;32620;51.704;7.822;2023-06-14T00:10:08;9.70;;;4.30;;
46415;SDS011;32620;51.704;7.822;2023-06-14T00:12:35;5.10;;;3.80;;
46415;SDS011;32620;51.704;7.822;2023-06-14T00:15:01;7.63;;;3.75;;
46415;SDS011;32620;51.704;7.822;2023-06-14T00:17:27;7.47;;;4.20;;
46415;SDS011;32620;51.704;7.822;2023-06-14T00:19:56;9.43;;;4.10;;
46415;SDS011;32620;51.704;7.822;2023-06-14T00:22:22;7.07;;;4.20;;
46415;SDS011;32620;51.704;7.822;2023-06-14T00:24:53;6.38;;;4.13;;
46415;SDS011;32620;51.704;7.822;2023-06-14T00:27:19;7.43;;;4.32;;
46415;SDS011;32620;51.704;7.822;2023-06-14T00:29:44;5.90;;;3.95;;
46415;SDS011;32620;51.704;7.822;2023-06-14T00:32:10;6.35;;;4.03;;
46415;SDS011;32620;51.704;7.822;2023-06-14T00:34:36;9.50;;;4.07;;
46415;SDS011;32620;51.704;7.822;2023-06-14T00:37:01;8.38;;;4.43;;
46415;SDS011;32620;51.704;7.822;2023-06-14T00:39:27;6.95;;;3.88;;
46415;SDS011;32620;51.704;7.822;2023-06-14T00:41:52;9.85;;;4.05;;
46415;SDS011;32620;51.704;7.822;2023-06-14T00:44:18;6.95;;;3.85;;
46415;SDS011;32620;51.704;7.822;2023-06-14T00:46:45;8.05;;;4.05;;
46415;SDS011;32620;51.704;7.822;2023-06-14T00:49:11;7.30;;;3.53;;
46415;SDS011;32620;51.704;7.822;2023-06-14T00:51:40;7.97;;;4.22;;
46415;SDS011;32620;51.704;7.822;2023-06-14T00:54:06;10.48;;;4.25;;
46415;SDS011;32620;51.704;7.822;2023-06-14T00:56:31;5.20;;;3.53;;
46415;SDS011;32620;51.704;7.822;2023-06-14T00:58:57;8.65;;;3.72;;
46415;SDS011;32620;51.704;7.822;2023-06-14T01:01:23;4.30;;;3.47;;
46415;SDS011;32620;51.704;7.822;2023-06-14T01:03:49;5.75;;;3.58;;
46415;SDS011;32620;51.704;7.822;2023-06-14T01:06:19;9.25;;;4.22;;
46415;SDS011;32620;51.704;7.822;2023-06-14T01:12:07;6.35;;;3.67;;
46415;SDS011;32620;51.704;7.822;2023-06-14T01:14:40;6.70;;;3.83;;
46415;SDS011;32620;51.704;7.822;2023-06-14T01:17:07;10.18;;;3.95;;
46415;SDS011;32620;51.704;7.822;2023-06-14T01:19:41;6.25;;;4.20;;
46415;SDS011;32620;51.704;7.822;2023-06-14T01:22:07;10.18;;;3.65;;
46415;SDS011;32620;51.704;7.822;2023-06-14T01:24:33;8.73;;;4.63;;
46415;SDS011;32620;51.704;7.822;2023-06-14T01:26:59;7.35;;;3.45;;
46415;SDS011;32620;51.704;7.822;2023-06-14T01:29:25;6.57;;;3.70;;
46415;SDS011;32620;51.704;7.822;2023-06-14T01:31:53;9.32;;;4.18;;
46415;SDS011;32620;51.704;7.822;2023-06-14T01:34:19;6.03;;;3.85;;
46415;SDS011;32620;51.704;7.822;2023-06-14T01:36:45;7.13;;;3.67;;
46415;SDS011;32620;51.704;7.822;2023-06-14T01:39:13;8.63;;;4.18;;
46415;SDS011;32620;51.704;7.822;2023-06-14T01:41:40;6.20;;;3.75;;
46415;SDS011;32620;51.704;7.822;2023-06-14T01:44:07;6.20;;;3.90;;
46415;SDS011;32620;51.704;7.822;2023-06-14T01:46:33;5.65;;;3.95;;
46415;SDS011;32620;51.704;7.822;2023-06-14T01:48:59;6.10;;;3.80;;
46415;SDS011;32620;51.704;7.822;2023-06-14T01:51:25;5.63;;;3.90;;
46415;SDS011;32620;51.704;7.822;2023-06-14T01:53:50;8.18;;;3.95;;
46415;SDS011;32620;51.704;7.822;2023-06-14T01:56:16;8.65;;;4.28;;
46415;SDS011;32620;51.704;7.822;2023-06-14T01:58:41;7.53;;;4.13;;
46415;SDS011;32620;51.704;7.822;2023-06-14T02:01:07;5.97;;;4.35;;
46415;SDS011;32620;51.704;7.822;2023-06-14T02:03:33;6.47;;;3.83;;
46415;SDS011;32620;51.704;7.822;2023-06-14T02:05:59;8.63;;;4.18;;
46415;SDS011;32620;51.704;7.822;2023-06-14T02:08:24;5.75;;;3.92;;
46415;SDS011;32620;51.704;7.822;2023-06-14T02:10:50;9.57;;;4.10;;
46415;SDS011;32620;51.704;7.822;2023-06-14T02:13:16;7.57;;;4.20;;
46415;SDS011;32620;51.704;7.822;2023-06-14T02:15:42;12.32;;;4.00;;
46415;SDS011;32620;51.704;7.822;2023-06-14T02:18:08;5.28;;;4.30;;
46415;SDS011;32620;51.704;7.822;2023-06-14T02:20:35;7.15;;;4.60;;
46415;SDS011;32620;51.704;7.822;2023-06-14T02:23:00;8.75;;;4.38;;
46415;SDS011;32620;51.704;7.822;2023-06-14T02:25:26;10.18;;;4.55;;
46415;SDS011;32620;51.704;7.822;2023-06-14T02:27:53;9.38;;;4.25;;
46415;SDS011;32620;51.704;7.822;2023-06-14T02:30:19;11.05;;;4.40;;
46415;SDS011;32620;51.704;7.822;2023-06-14T02:32:45;8.13;;;4.03;;
46415;SDS011;32620;51.704;7.822;2023-06-14T02:35:13;6.88;;;4.13;;
46415;SDS011;32620;51.704;7.822;2023-06-14T02:37:39;9.80;;;4.38;;
46415;SDS011;32620;51.704;7.822;2023-06-14T02:40:05;8.65;;;4.15;;
46415;SDS011;32620;51.704;7.822;2023-06-14T02:42:31;4.63;;;3.80;;
46415;SDS011;32620;51.704;7.822;2023-06-14T02:44:57;9.27;;;4.65;;
46415;SDS011;32620;51.704;7.822;2023-06-14T02:47:22;8.35;;;3.80;;
46415;SDS011;32620;51.704;7.822;2023-06-14T02:49:47;6.30;;;4.13;;
46415;SDS011;32620;51.704;7.822;2023-06-14T02:52:13;8.73;;;4.20;;
46415;SDS011;32620;51.704;7.822;2023-06-14T02:54:39;7.10;;;4.20;;
46415;SDS011;32620;51.704;7.822;2023-06-14T02:57:05;7.25;;;4.38;;
46415;SDS011;32620;51.704;7.822;2023-06-14T02:59:32;8.98;;;4.28;;
46415;SDS011;32620;51.704;7.822;2023-06-14T03:01:58;5.63;;;4.38;;
46415;SDS011;32620;51.704;7.822;2023-06-14T03:04:24;8.30;;;4.35;;
46415;SDS011;32620;51.704;7.822;2023-06-14T03:06:50;6.35;;;4.43;;
46415;SDS011;32620;51.704;7.822;2023-06-14T03:09:16;8.93;;;4.28;;
46415;SDS011;32620;51.704;7.822;2023-06-14T03:11:42;8.18;;;4.25;;
46415;SDS011;32620;51.704;7.822;2023-06-14T03:14:08;9.43;;;3.72;;
46415;SDS011;32620;51.704;7.822;2023-06-14T03:16:33;6.50;;;3.83;;
46415;SDS011;32620;51.704;7.822;2023-06-14T03:18:59;7.00;;;4.28;;
46415;SDS011;32620;51.704;7.822;2023-06-14T03:21:24;6.05;;;4.25;;
46415;SDS011;32620;51.704;7.822;2023-06-14T03:23:51;8.35;;;4.28;;
46415;SDS011;32620;51.704;7.822;2023-06-14T03:26:17;6.35;;;4.40;;
46415;SDS011;32620;51.704;7.822;2023-06-14T03:28:44;7.88;;;4.00;;
46415;SDS011;32620;51.704;7.822;2023-06-14T03:31:10;7.63;;;4.07;;
46415;SDS011;32620;51.704;7.822;2023-06-14T03:33:36;8.20;;;4.10;;
46415;SDS011;32620;51.704;7.822;2023-06-14T03:36:02;6.10;;;4.13;;
46415;SDS011;32620;51.704;7.822;2023-06-14T03:38:28;6.43;;;4.00;;
46415;SDS011;32620;51.704;7.822;2023-06-14T03:40:54;5.25;;;3.83;;
46415;SDS011;32620;51.704;7.822;2023-06-14T03:43:19;5.65;;;3.90;;
46415;SDS011;32620;51.704;7.822;2023-06-14T03:45:45;6.93;;;3.75;;
46415;SDS011;32620;51.704;7.822;2023-06-14T03:48:11;8.43;;;3.85;;
46415;SDS011;32620;51.704;7.822;2023-06-14T03:50:36;4.65;;;3.80;;
46415;SDS011;32620;51.704;7.822;2023-06-14T03:53:03;6.20;;;3.88;;
46415;SDS011;32620;51.704;7.822;2023-06-14T03:55:29;8.05;;;4.03;;
46415;SDS011;32620;51.704;7.822;2023-06-14T03:57:56;6.65;;;3.80;;
46415;SDS011;32620;51.704;7.822;2023-06-14T04:00:22;6.60;;;4.20;;
46415;SDS011;32620;51.704;7.822;2023-06-14T04:02:48;8.95;;;3.92;;
46415;SDS011;32620;51.704;7.822;2023-06-14T04:05:13;7.30;;;4.03;;
46415;SDS011;32620;51.704;7.822;2023-06-14T04:07:41;6.25;;;3.92;;
46415;SDS011;32620;51.704;7.822;2023-06-14T04:10:09;5.93;;;3.75;;
46415;SDS011;32620;51.704;7.822;2023-06-14T04:12:36;6.00;;;4.00;;
46415;SDS011;32620;51.704;7.822;2023-06-14T04:15:01;7.57;;;4.25;;
46415;SDS011;32620;51.704;7.822;2023-06-14T04:17:27;8.30;;;4.05;;
46415;SDS011;32620;51.704;7.822;2023-06-14T04:19:53;6.20;;;3.85;;
46415;SDS011;32620;51.704;7.822;2023-06-14T04:22:19;9.02;;;3.92;;
46415;SDS011;32620;51.704;7.822;2023-06-14T04:24:44;8.07;;;4.22;;
46415;SDS011;32620;51.704;7.822;2023-06-14T04:27:11;5.68;;;3.95;;
46415;SDS011;32620;51.704;7.822;2023-06-14T04:29:36;7.30;;;4.43;;
46415;SDS011;32620;51.704;7.822;2023-06-14T04:32:02;8.68;;;3.85;;
46415;SDS011;32620;51.704;7.822;2023-06-14T04:34:28;4.40;;;4.00;;
46415;SDS011;32620;51.704;7.822;2023-06-14T04:36:57;8.23;;;4.10;;
46415;SDS011;32620;51.704;7.822;2023-06-14T04:39:24;8.45;;;3.60;;
46415;SDS011;32620;51.704;7.822;2023-06-14T04:41:51;8.02;;;3.47;;
46415;SDS011;32620;51.704;7.822;2023-06-14T04:44:17;7.05;;;3.50;;
46415;SDS011;32620;51.704;7.822;2023-06-14T04:46:44;8.27;;;3.72;;
46415;SDS011;32620;51.704;7.822;2023-06-14T04:49:12;5.22;;;3.05;;
46415;SDS011;32620;51.704;7.822;2023-06-14T04:51:40;6.63;;;3.85;;
46415;SDS011;32620;51.704;7.822;2023-06-14T04:54:07;7.97;;;3.40;;
46415;SDS011;32620;51.704;7.822;2023-06-14T04:56:35;4.80;;;3.40;;
46415;SDS011;32620;51.704;7.822;2023-06-14T04:59:02;6.65;;;3.53;;
46415;SDS011;32620;51.704;7.822;2023-06-14T05:01:29;6.05;;;4.20;;
46415;SDS011;32620;51.704;7.822;2023-06-14T05:03:56;6.03;;;3.25;;
46415;SDS011;32620;51.704;7.822;2023-06-14T05:06:22;8.25;;;3.35;;
46415;SDS011;32620;51.704;7.822;2023-06-14T05:08:48;3.95;;;3.15;;
46415;SDS011;32620;51.704;7.822;2023-06-14T05:11:14;6.32;;;3.28;;
46415;SDS011;32620;51.704;7.822;2023-06-14T05:13:39;8.15;;;3.30;;
46415;SDS011;32620;51.704;7.822;2023-06-14T05:16:06;8.20;;;3.50;;
46415;SDS011;32620;51.704;7.822;2023-06-14T05:18:32;8.60;;;3.70;;
46415;SDS011;32620;51.704;7.822;2023-06-14T05:21:00;6.30;;;3.20;;
46415;SDS011;32620;51.704;7.822;2023-06-14T05:23:26;4.15;;;3.13;;
46415;SDS011;32620;51.704;7.822;2023-06-14T05:25:51;10.25;;;3.13;;
46415;SDS011;32620;51.704;7.822;2023-06-14T05:28:17;6.60;;;3.40;;
46415;SDS011;32620;51.704;7.822;2023-06-14T05:30:43;7.93;;;3.60;;
46415;SDS011;32620;51.704;7.822;2023-06-14T05:33:08;6.55;;;3.40;;
46415;SDS011;32620;51.704;7.822;2023-06-14T05:35:34;7.95;;;3.53;;
46415;SDS011;32620;51.704;7.822;2023-06-14T05:38:00;6.15;;;3.10;;
46415;SDS011;32620;51.704;7.822;2023-06-14T05:40:26;4.78;;;2.55;;
46415;SDS011;32620;51.704;7.822;2023-06-14T05:42:51;5.07;;;2.90;;
46415;SDS011;32620;51.704;7.822;2023-06-14T05:45:17;6.35;;;3.40;;
46415;SDS011;32620;51.704;7.822;2023-06-14T05:47:42;4.85;;;2.83;;
46415;SDS011;32620;51.704;7.822;2023-06-14T05:50:08;4.85;;;2.78;;
46415;SDS011;32620;51.704;7.822;2023-06-14T05:52:34;5.93;;;2.85;;
46415;SDS011;32620;51.704;7.822;2023-06-14T05:55:01;6.72;;;2.88;;
46415;SDS011;32620;51.704;7.822;2023-06-14T05:57:28;5.65;;;2.78;;
46415;SDS011;32620;51.704;7.822;2023-06-14T05:59:53;9.40;;;3.10;;
46415;SDS011;32620;51.704;7.822;2023-06-14T06:02:19;5.13;;;3.35;;
46415;SDS011;32620;51.704;7.822;2023-06-14T06:04:45;6.50;;;2.83;;
46415;SDS011;32620;51.704;7.822;2023-06-14T06:07:10;7.90;;;3.03;;
46415;SDS011;32620;51.704;7.822;2023-06-14T06:09:36;7.43;;;3.00;;
46415;SDS011;32620;51.704;7.822;2023-06-14T06:12:02;6.50;;;3.03;;
46415;SDS011;32620;51.704;7.822;2023-06-14T06:14:28;4.78;;;3.15;;
46415;SDS011;32620;51.704;7.822;2023-06-14T06:16:54;7.82;;;3.20;;
46415;SDS011;32620;51.704;7.822;2023-06-14T06:19:19;5.35;;;3.30;;
46415;SDS011;32620;51.704;7.822;2023-06-14T06:21:45;5.75;;;2.85;;
46415;SDS011;32620;51.704;7.822;2023-06-14T06:24:11;3.65;;;3.00;;
46415;SDS011;32620;51.704;7.822;2023-06-14T06:26:36;5.07;;;2.80;;
46415;SDS011;32620;51.704;7.822;2023-06-14T06:29:02;3.05;;;2.50;;
46415;SDS011;32620;51.704;7.822;2023-06-14T06:31:28;5.30;;;3.10;;
46415;SDS011;32620;51.704;7.822;2023-06-14T06:33:54;6.43;;;2.85;;
46415;SDS011;32620;51.704;7.822;2023-06-14T06:36:20;4.10;;;2.80;;
46415;SDS011;32620;51.704;7.822;2023-06-14T06:38:46;5.18;;;2.65;;
46415;SDS011;32620;51.704;7.822;2023-06-14T06:41:12;4.95;;;2.75;;
46415;SDS011;32620;51.704;7.822;2023-06-14T06:43:38;5.18;;;2.65;;
46415;SDS011;32620;51.704;7.822;2023-06-14T06:46:04;5.35;;;2.20;;
46415;SDS011;32620;51.704;7.822;2023-06-14T06:48:29;3.70;;;2.65;;
46415;SDS011;32620;51.704;7.822;2023-06-14T06:50:55;4.03;;;2.42;;
46415;SDS011;32620;51.704;7.822;2023-06-14T06:53:21;8.75;;;2.40;;
46415;SDS011;32620;51.704;7.822;2023-06-14T06:55:46;4.50;;;2.38;;
46415;SDS011;32620;51.704;7.822;2023-06-14T06:58:13;4.63;;;1.98;;
46415;SDS011;32620;51.704;7.822;2023-06-14T07:00:39;6.88;;;2.10;;
46415;SDS011;32620;51.704;7.822;2023-06-14T07:03:05;3.90;;;1.95;;
46415;SDS011;32620;51.704;7.822;2023-06-14T07:05:31;2.22;;;2.00;;
46415;SDS011;32620;51.704;7.822;2023-06-14T07:07:57;5.20;;;2.15;;
46415;SDS011;32620;51.704;7.822;2023-06-14T07:10:23;4.95;;;2.08;;
46415;SDS011;32620;51.704;7.822;2023-06-14T07:12:49;2.70;;;1.80;;
46415;SDS011;32620;51.704;7.822;2023-06-14T07:15:15;4.32;;;1.60;;
46415;SDS011;32620;51.704;7.822;2023-06-14T07:17:41;3.10;;;2.00;;
46415;SDS011;32620;51.704;7.822;2023-06-14T07:20:07;3.35;;;1.60;;
46415;SDS011;32620;51.704;7.822;2023-06-14T07:22:36;2.20;;;2.00;;
46415;SDS011;32620;51.704;7.822;2023-06-14T07:25:03;4.18;;;1.60;;
46415;SDS011;32620;51.704;7.822;2023-06-14T07:27:29;4.47;;;1.77;;
46415;SDS011;32620;51.704;7.822;2023-06-14T07:29:55;5.28;;;1.92;;
46415;SDS011;32620;51.704;7.822;2023-06-14T07:32:20;3.95;;;2.00;;
46415;SDS011;32620;51.704;7.822;2023-06-14T07:34:46;5.00;;;1.80;;
46415;SDS011;32620;51.704;7.822;2023-06-14T07:37:12;5.70;;;1.77;;
46415;SDS011;32620;51.704;7.822;2023-06-14T07:39:37;1.83;;;1.50;;
46415;SDS011;32620;51.704;7.822;2023-06-14T07:42:03;1.67;;;1.30;;
46415;SDS011;32620;51.704;7.822;2023-06-14T07:44:29;3.33;;;1.30;;
46415;SDS011;32620;51.704;7.822;2023-06-14T07:46:56;2.20;;;1.60;;
46415;SDS011;32620;51.704;7.822;2023-06-14T07:49:24;3.97;;;1.40;;
46415;SDS011;32620;51.704;7.822;2023-06-14T07:51:49;2.92;;;1.20;;
46415;SDS011;32620;51.704;7.822;2023-06-14T07:54:16;2.47;;;1.42;;
46415;SDS011;32620;51.704;7.822;2023-06-14T07:56:42;2.55;;;1.20;;
46415;SDS011;32620;51.704;7.822;2023-06-14T07:59:07;3.58;;;1.20;;
46415;SDS011;32620;51.704;7.822;2023-06-14T08:01:34;3.58;;;1.25;;
46415;SDS011;32620;51.704;7.822;2023-06-14T08:03:59;2.03;;;1.15;;
46415;SDS011;32620;51.704;7.822;2023-06-14T08:06:26;1.50;;;1.13;;
46415;SDS011;32620;51.704;7.822;2023-06-14T08:08:51;1.10;;;1.00;;
46415;SDS011;32620;51.704;7.822;2023-06-14T08:11:17;2.50;;;1.30;;
46415;SDS011;32620;51.704;7.822;2023-06-14T08:13:42;3.72;;;0.95;;
46415;SDS011;32620;51.704;7.822;2023-06-14T08:16:08;0.88;;;0.88;;
46415;SDS011;32620;51.704;7.822;2023-06-14T08:18:33;3.17;;;1.15;;
46415;SDS011;32620;51.704;7.822;2023-06-14T08:20:59;2.13;;;1.17;;
46415;SDS011;32620;51.704;7.822;2023-06-14T08:23:25;1.65;;;1.08;;
46415;SDS011;32620;51.704;7.822;2023-06-14T08:25:50;3.45;;;1.50;;
46415;SDS011;32620;51.704;7.822;2023-06-14T08:28:16;2.90;;;1.25;;
46415;SDS011;32620;51.704;7.822;2023-06-14T08:30:42;2.13;;;1.20;;
46415;SDS011;32620;51.704;7.822;2023-06-14T08:33:08;3.53;;;1.40;;
46415;SDS011;32620;51.704;7.822;2023-06-14T08:35:33;1.55;;;1.23;;
46415;SDS011;32620;51.704;7.822;2023-06-14T08:38:02;2.35;;;1.20;;
46415;SDS011;32620;51.704;7.822;2023-06-14T08:40:29;2.03;;;1.13;;
46415;SDS011;32620;51.704;7.822;2023-06-14T08:42:55;2.00;;;1.13;;
46415;SDS011;32620;51.704;7.822;2023-06-14T08:45:21;1.55;;;1.38;;
46415;SDS011;32620;51.704;7.822;2023-06-14T08:47:48;6.07;;;1.60;;
46415;SDS011;32620;51.704;7.822;2023-06-14T08:50:18;2.15;;;1.25;;
46415;SDS011;32620;51.704;7.822;2023-06-14T08:52:46;1.48;;;1.25;;
46415;SDS011;32620;51.704;7.822;2023-06-14T08:55:17;3.28;;;1.35;;
46415;SDS011;32620;51.704;7.822;2023-06-14T08:57:44;2.22;;;1.25;;
46415;SDS011;32620;51.704;7.822;2023-06-14T09:00:13;1.58;;;1.30;;
46415;SDS011;32620;51.704;7.822;2023-06-14T09:02:39;2.80;;;1.75;;
46415;SDS011;32620;51.704;7.822;2023-06-14T09:05:08;3.20;;;1.63;;
46415;SDS011;32620;51.704;7.822;2023-06-14T09:07:35;6.40;;;1.73;;
46415;SDS011;32620;51.704;7.822;2023-06-14T09:10:07;2.58;;;1.75;;
46415;SDS011;32620;51.704;7.822;2023-06-14T09:12:34;1.92;;;1.40;;
46415;SDS011;32620;51.704;7.822;2023-06-14T09:15:00;1.90;;;1.30;;
46415;SDS011;32620;51.704;7.822;2023-06-14T09:17:31;2.85;;;1.60;;
46415;SDS011;32620;51.704;7.822;2023-06-14T09:19:58;3.13;;;1.70;;
46415;SDS011;32620;51.704;7.822;2023-06-14T09:22:24;2.55;;;1.75;;
46415;SDS011;32620;51.704;7.822;2023-06-14T09:24:49;3.90;;;1.70;;
46415;SDS011;32620;51.704;7.822;2023-06-14T09:27:15;2.22;;;1.92;;
46415;SDS011;32620;51.704;7.822;2023-06-14T09:29:41;2.92;;;1.65;;
46415;SDS011;32620;51.704;7.822;2023-06-14T09:32:06;3.00;;;1.70;;
46415;SDS011;32620;51.704;7.822;2023-06-14T09:34:32;4.30;;;1.80;;
46415;SDS011;32620;51.704;7.822;2023-06-14T09:37:00;2.03;;;1.65;;
46415;SDS011;32620;51.704;7.822;2023-06-14T09:39:25;2.33;;;1.80;;
46415;SDS011;32620;51.704;7.822;2023-06-14T09:41:52;5.85;;;1.85;;
46415;SDS011;32620;51.704;7.822;2023-06-14T09:44:17;1.63;;;1.52;;
46415;SDS011;32620;51.704;7.822;2023-06-14T09:46:45;1.83;;;1.45;;
46415;SDS011;32620;51.704;7.822;2023-06-14T09:49:11;2.78;;;1.50;;
46415;SDS011;32620;51.704;7.822;2023-06-14T09:51:42;2.25;;;1.45;;
46415;SDS011;32620;51.704;7.822;2023-06-14T09:54:08;2.75;;;1.40;;
46415;SDS011;32620;51.704;7.822;2023-06-14T09:56:41;3.15;;;1.67;;
46415;SDS011;32620;51.704;7.822;2023-06-14T09:59:10;2.15;;;1.30;;
46415;SDS011;32620;51.704;7.822;2023-06-14T10:01:41;4.15;;;1.52;;
46415;SDS011;32620;51.704;7.822;2023-06-14T10:04:07;2.88;;;1.40;;
46415;SDS011;32620;51.704;7.822;2023-06-14T10:06:36;2.85;;;1.67;;
46415;SDS011;32620;51.704;7.822;2023-06-14T10:09:04;2.45;;;1.50;;
46415;SDS011;32620;51.704;7.822;2023-06-14T10:11:32;3.67;;;1.67;;
46415;SDS011;32620;51.704;7.822;2023-06-14T10:14:00;2.67;;;1.50;;
46415;SDS011;32620;51.704;7.822;2023-06-14T10:16:30;2.92;;;1.70;;
46415;SDS011;32620;51.704;7.822;2023-06-14T10:19:11;1.70;;;1.60;;
46415;SDS011;32620;51.704;7.822;2023-06-14T10:21:46;5.38;;;1.80;;
46415;SDS011;32620;51.704;7.822;2023-06-14T10:24:33;4.97;;;1.85;;
46415;SDS011;32620;51.704;7.822;2023-06-14T10:27:04;4.47;;;1.80;;
46415;SDS011;32620;51.704;7.822;2023-06-14T10:29:35;3.08;;;1.60;;
46415;SDS011;32620;51.704;7.822;2023-06-14T10:32:24;1.80;;;1.70;;
46415;SDS011;32620;51.704;7.822;2023-06-14T10:34:53;2.92;;;1.85;;
46415;SDS011;32620;51.704;7.822;2023-06-14T10:37:21;3.22;;;1.88;;
46415;SDS011;32620;51.704;7.822;2023-06-14T10:39:47;5.25;;;1.92;;
46415;SDS011;32620;51.704;7.822;2023-06-14T10:42:13;2.35;;;2.00;;
46415;SDS011;32620;51.704;7.822;2023-06-14T10:44:42;3.75;;;1.80;;
46415;SDS011;32620;51.704;7.822;2023-06-14T10:47:28;1.67;;;1.58;;
46415;SDS011;32620;51.704;7.822;2023-06-14T10:50:11;4.95;;;2.40;;
46415;SDS011;32620;51.704;7.822;2023-06-14T10:52:40;4.72;;;2.00;;
46415;SDS011;32620;51.704;7.822;2023-06-14T10:55:09;3.22;;;2.20;;
46415;SDS011;32620;51.704;7.822;2023-06-14T10:57:47;3.20;;;2.30;;
46415;SDS011;32620;51.704;7.822;2023-06-14T11:00:17;3.30;;;2.15;;
46415;SDS011;32620;51.704;7.822;2023-06-14T11:02:51;4.45;;;2.50;;
46415;SDS011;32620;51.704;7.822;2023-06-14T11:05:54;2.53;;;2.33;;
46415;SDS011;32620;51.704;7.822;2023-06-14T11:11:07;6.22;;;2.72;;
46415;SDS011;32620;51.704;7.822;2023-06-14T11:13:34;4.05;;;2.60;;
46415;SDS011;32620;51.704;7.822;2023-06-14T11:16:02;3.95;;;2.35;;
46415;SDS011;32620;51.704;7.822;2023-06-14T11:18:37;7.43;;;2.25;;
46415;SDS011;32620;51.704;7.822;2023-06-14T11:21:02;2.83;;;2.25;;
46415;SDS011;32620;51.704;7.822;2023-06-14T11:23:28;7.50;;;2.75;;
46415;SDS011;32620;51.704;7.822;2023-06-14T11:25:54;6.25;;;2.88;;
46415;SDS011;32620;51.704;7.822;2023-06-14T11:28:19;2.60;;;2.40;;
46415;SDS011;32620;51.704;7.822;2023-06-14T11:30:46;5.30;;;2.70;;
46415;SDS011;32620;51.704;7.822;2023-06-14T11:33:17;4.40;;;2.47;;
46415;SDS011;32620;51.704;7.822;2023-06-14T11:35:44;4.40;;;3.03;;
46415;SDS011;32620;51.704;7.822;2023-06-14T11:38:10;6.22;;;3.00;;
46415;SDS011;32620;51.704;7.822;2023-06-14T11:40:37;4.28;;;2.70;;
46415;SDS011;32620;51.704;7.822;2023-06-14T11:43:03;3.30;;;2.90;;
46415;SDS011;32620;51.704;7.822;2023-06-14T11:45:30;3.85;;;2.30;;
46415;SDS011;32620;51.704;7.822;2023-06-14T11:47:56;2.83;;;2.60;;
46415;SDS011;32620;51.704;7.822;2023-06-14T11:50:22;4.38;;;2.35;;
46415;SDS011;32620;51.704;7.822;2023-06-14T11:52:55;3.47;;;2.40;;
46415;SDS011;32620;51.704;7.822;2023-06-14T11:55:22;5.35;;;2.70;;
46415;SDS011;32620;51.704;7.822;2023-06-14T11:57:49;4.53;;;2.78;;
46415;SDS011;32620;51.704;7.822;2023-06-14T12:00:15;3.90;;;3.17;;
46415;SDS011;32620;51.704;7.822;2023-06-14T12:02:42;4.88;;;2.97;;
46415;SDS011;32620;51.704;7.822;2023-06-14T12:05:08;5.70;;;3.05;;
46415;SDS011;32620;51.704;7.822;2023-06-14T12:07:36;3.65;;;2.70;;
46415;SDS011;32620;51.704;7.822;2023-06-14T12:12:40;5.65;;;2.78;;
46415;SDS011;32620;51.704;7.822;2023-06-14T12:15:07;3.22;;;2.92;;
46415;SDS011;32620;51.704;7.822;2023-06-14T12:17:34;7.55;;;3.00;;
46415;SDS011;32620;51.704;7.822;2023-06-14T12:20:08;4.80;;;3.15;;
46415;SDS011;32620;51.704;7.822;2023-06-14T12:22:36;5.47;;;3.00;;
46415;SDS011;32620;51.704;7.822;2023-06-14T12:25:03;4.60;;;2.80;;
46415;SDS011;32620;51.704;7.822;2023-06-14T12:27:29;5.22;;;3.13;;
46415;SDS011;32620;51.704;7.822;2023-06-14T12:29:59;4.40;;;2.85;;
46415;SDS011;32620;51.704;7.822;2023-06-14T12:32:26;7.28;;;3.20;;
46415;SDS011;32620;51.704;7.822;2023-06-14T12:34:52;4.10;;;2.80;;
46415;SDS011;32620;51.704;7.822;2023-06-14T12:37:18;3.00;;;2.80;;
46415;SDS011;32620;51.704;7.822;2023-06-14T12:39:43;4.88;;;2.70;;
46415;SDS011;32620;51.704;7.822;2023-06-14T12:42:09;2.88;;;2.65;;
46415;SDS011;32620;51.704;7.822;2023-06-14T12:44:34;3.33;;;2.90;;
46415;SDS011;32620;51.704;7.822;2023-06-14T12:47:05;8.00;;;3.30;;
46415;SDS011;32620;51.704;7.822;2023-06-14T12:49:31;4.07;;;2.70;;
46415;SDS011;32620;51.704;7.822;2023-06-14T12:51:57;3.53;;;2.80;;
46415;SDS011;32620;51.704;7.822;2023-06-14T12:54:22;3.42;;;2.60;;
46415;SDS011;32620;51.704;7.822;2023-06-14T12:56:50;3.67;;;2.60;;
46415;SDS011;32620;51.704;7.822;2023-06-14T12:59:16;5.13;;;3.10;;
46415;SDS011;32620;51.704;7.822;2023-06-14T13:01:43;4.15;;;2.40;;
46415;SDS011;32620;51.704;7.822;2023-06-14T13:04:09;3.83;;;2.45;;
46415;SDS011;32620;51.704;7.822;2023-06-14T13:06:35;5.43;;;3.00;;
46415;SDS011;32620;51.704;7.822;2023-06-14T13:09:01;5.25;;;2.70;;
46415;SDS011;32620;51.704;7.822;2023-06-14T13:11:26;4.28;;;2.70;;
46415;SDS011;32620;51.704;7.822;2023-06-14T13:13:52;5.03;;;2.75;;
46415;SDS011;32620;51.704;7.822;2023-06-14T13:16:17;6.22;;;2.88;;
46415;SDS011;32620;51.704;7.822;2023-06-14T13:18:43;4.15;;;2.78;;
46415;SDS011;32620;51.704;7.822;2023-06-14T13:21:08;4.65;;;2.50;;
46415;SDS011;32620;51.704;7.822;2023-06-14T13:23:34;3.55;;;2.95;;
46415;SDS011;32620;51.704;7.822;2023-06-14T13:25:59;3.13;;;2.40;;
46415;SDS011;32620;51.704;7.822;2023-06-14T13:28:25;2.67;;;2.47;;
46415;SDS011;32620;51.704;7.822;2023-06-14T13:30:51;2.83;;;2.60;;
46415;SDS011;32620;51.704;7.822;2023-06-14T13:33:17;5.43;;;3.03;;
46415;SDS011;32620;51.704;7.822;2023-06-14T13:35:42;5.20;;;2.58;;
46415;SDS011;32620;51.704;7.822;2023-06-14T13:38:09;3.65;;;2.83;;
46415;SDS011;32620;51.704;7.822;2023-06-14T13:40:35;3.85;;;2.83;;
46415;SDS011;32620;51.704;7.822;2023-06-14T13:43:01;4.80;;;2.92;;
46415;SDS011;32620;51.704;7.822;2023-06-14T13:45:27;5.03;;;2.65;;
46415;SDS011;32620;51.704;7.822;2023-06-14T13:47:52;5.22;;;2.95;;
46415;SDS011;32620;51.704;7.822;2023-06-14T13:50:19;2.88;;;2.53;;
46415;SDS011;32620;51.704;7.822;2023-06-14T13:52:45;4.43;;;2.30;;
46415;SDS011;32620;51.704;7.822;2023-06-14T13:55:11;3.70;;;2.60;;
46415;SDS011;32620;51.704;7.822;2023-06-14T13:57:36;5.50;;;2.50;;
46415;SDS011;32620;51.704;7.822;2023-06-14T14:00:02;2.83;;;2.55;;
46415;SDS011;32620;51.704;7.822;2023-06-14T14:02:28;5.25;;;2.83;;
46415;SDS011;32620;51.704;7.822;2023-06-14T14:04:54;3.88;;;2.72;;
46415;SDS011;32620;51.704;7.822;2023-06-14T14:07:20;5.03;;;2.90;;
46415;SDS011;32620;51.704;7.822;2023-06-14T14:09:47;4.20;;;3.00;;
46415;SDS011;32620;51.704;7.822;2023-06-14T14:12:12;3.17;;;2.60;;
46415;SDS011;32620;51.704;7.822;2023-06-14T14:14:39;4.88;;;2.60;;
46415;SDS011;32620;51.704;7.822;2023-06-14T14:17:05;3.75;;;2.70;;
46415;SDS011;32620;51.704;7.822;2023-06-14T14:19:31;4.95;;;2.88;;
46415;SDS011;32620;51.704;7.822;2023-06-14T14:21:57;5.80;;;3.08;;
46415;SDS011;32620;51.704;7.822;2023-06-14T14:24:23;3.17;;;2.80;;
46415;SDS011;32620;51.704;7.822;2023-06-14T14:26:48;3.03;;;2.60;;
46415;SDS011;32620;51.704;7.822;2023-06-14T14:29:14;3.13;;;2.80;;
46415;SDS011;32620;51.704;7.822;2023-06-14T14:31:40;3.22;;;2.97;;
46415;SDS011;32620;51.704;7.822;2023-06-14T14:34:06;4.32;;;3.05;;
46415;SDS011;32620;51.704;7.822;2023-06-14T14:36:31;3.33;;;2.72;;
46415;SDS011;32620;51.704;7.822;2023-06-14T14:39:01;3.35;;;3.05;;
46415;SDS011;32620;51.704;7.822;2023-06-14T14:41:27;3.63;;;2.70;;
46415;SDS011;32620;51.704;7.822;2023-06-14T14:43:52;3.00;;;2.72;;
46415;SDS011;32620;51.704;7.822;2023-06-14T14:46:18;8.40;;;3.35;;
46415;SDS011;32620;51.704;7.822;2023-06-14T14:48:43;3.63;;;2.92;;
46415;SDS011;32620;51.704;7.822;2023-06-14T14:51:09;5.15;;;3.15;;
46415;SDS011;32620;51.704;7.822;2023-06-14T14:53:34;5.28;;;2.67;;